Nearby METAR Reports

 

KEQY - Monroe, North Carolina, USA
Distance from station: S 11mi, 18km
Updated: Thu, 10/02/2014 11:53am EDT
Overcast
Overcast
 Wind from WSW
Wind: WSW 6 mph , 9 km/h
Temperature: 75°F , 24°C
Dew Point: 63°F , 17°C
Humidity: 65%
Barometer: 30.12 inHg , 1020 hPa
Clouds: Overcast
Visibility: 10 miles , 16 km
Cloud details: Overcast 8000 ft
2014/10/02 15:53 KEQY 021553Z AUTO 24005KT 10SM OVC080 24/17 A3012 RMK AO2 SLP200 T02390172
KJQF - Concord Reg Arpt, North Carolina, USA
Distance from station: NNW 16mi, 25km
Updated: Thu, 10/02/2014 11:59am EDT
Clear
Clear
 Wind from calm
Wind: Calm
Temperature: 79°F , 26°C
Dew Point: 64°F , 18°C
Humidity: 61%
Barometer: 30.15 inHg , 1021 hPa
Clouds: Clear
Visibility: 10 miles , 16 km
2014/10/02 15:59 KJQF 021559Z 00000KT 10SM CLR 26/18 A3015
 
KCLT - Charlotte, North Carolina, USA
Distance from station: W 20mi, 33km
Updated: Thu, 10/02/2014 11:52am EDT
Few Clouds
Few Clouds
 Wind from W
Wind: W 5 mph , 7 km/h
Temperature: 79°F , 26°C
Dew Point: 63°F , 17°C
Humidity: 58%
Barometer: 30.12 inHg , 1020 hPa
Clouds: Few Clouds
Visibility: 10 miles , 16 km
Cloud details: Few Clouds 5500 ft
2014/10/02 15:52 KCLT 021552Z 28004KT 10SM FEW055 26/17 A3012 RMK AO2 SLP192 T02560167
KUZA - Rock Hill, South Carolina, USA
Distance from station: WSW 29mi, 47km
Updated: Thu, 10/02/2014 11:54am EDT
Clear
Clear
 Wind from SSW
Wind: SSW 7 mph , 11 km/h
Temperature: 79°F , 26°C
Dew Point: 64°F , 18°C
Humidity: 61%
Barometer: 30.13 inHg , 1020.3 hPa
Clouds: Clear
Visibility: 10 miles , 16 km
2014/10/02 15:54 KUZA 021554Z AUTO 21006KT 10SM CLR 26/18 A3013 RMK AO2 SLP192 T02610183
 
KVUJ - Albemarle Stanly, North Carolina, USA
Distance from station: NE 30mi, 48km
Updated: Thu, 10/02/2014 12:15pm EDT
Mostly cloudy
Mostly cloudy
 Wind from calm
Wind: Calm
Temperature: 77°F , 25°C
Dew Point: 66°F , 19°C
Humidity: 69%
Barometer: 30.15 inHg , 1021 hPa
Clouds: Mostly cloudy
Visibility: 10 miles , 16 km
Cloud details: Mostly cloudy 10000 ft
2014/10/02 16:15 KVUJ 021615Z AUTO 00000KT 10SM BKN100 25/19 A3015 RMK AO2 LTG DSNT W T02540193
KAFP - Wadesboro/Anson, North Carolina, USA
Distance from station: ESE 31mi, 50km
Updated: Thu, 10/02/2014 12:15pm EDT
Overcast
Overcast
 Wind from calm
Wind: Calm
Temperature: 77°F , 25°C
Dew Point: 63°F , 17°C
Humidity: 61%
Barometer: 30.11 inHg , 1019.6 hPa
Clouds: Overcast
Visibility: 10 miles , 16 km
Cloud details: Partly cloudy 6000 ft
Partly cloudy 8000 ft
Overcast 10000 ft
2014/10/02 16:15 KAFP 021615Z AUTO 00000KT 10SM SCT060 SCT080 OVC100 25/17 A3011 RMK AO2 T02450171
 
KAKH - Gastonia, North Carolina, USA
Distance from station: W 31mi, 51km
Updated: Thu, 10/02/2014 11:54am EDT
Clear
Clear
 Wind from SW
Wind: SW 3 mph , 6 km/h
Temperature: 79°F , 26°C
Dew Point: 64°F , 18°C
Humidity: 61%
Barometer: 30.12 inHg , 1020 hPa
Clouds: Clear
Visibility: 10 miles , 16 km
2014/10/02 15:54 KAKH 021554Z AUTO 22003KT 10SM CLR 26/18 A3012 RMK AO2 SLP195 T02610183
KRUQ - Salisbury Rowan, North Carolina, USA
Distance from station: N 33mi, 53km
Updated: Thu, 10/02/2014 12:15pm EDT
Clear
Clear
 Wind from calm
Wind: Calm
Temperature: 75°F , 24°C
Dew Point: 64°F , 18°C
Humidity: 69%
Barometer: 30.12 inHg , 1020 hPa
Clouds: Clear
Visibility: 10 miles , 16 km
2014/10/02 16:15 KRUQ 021615Z AUTO 00000KT 10SM CLR 24/18 A3012 RMK AO2 T02390184
 
KLKR - Lancaster, South Carolina, USA
Distance from station: SSW 35mi, 57km
Updated: Thu, 10/02/2014 12:15pm EDT
Clear
Clear
 Wind from SW
Wind: SW 3 mph , 6 km/h
Temperature: 81°F , 27°C
Heat Index: 84°F , 29°C
Dew Point: 68°F , 20°C
Humidity: 66%
Barometer: 30.12 inHg , 1020 hPa
Clouds: Clear
Visibility: 10 miles , 16 km
2014/10/02 16:15 KLKR 021615Z AUTO 23003KT 10SM CLR 27/20 A3012 RMK AO2
KIPJ - Lincolnton, North Carolina, USA
Distance from station: WNW 39mi, 62km
Updated: Thu, 10/02/2014 12:15pm EDT
Clear
Clear
 Wind from WSW
Wind: WSW 5 mph , 7 km/h
Temperature: 79°F , 26°C
Dew Point: 61°F , 16°C
Humidity: 54%
Barometer: 30.12 inHg , 1020 hPa
Clouds: Clear
Visibility: 10 miles , 16 km
2014/10/02 16:15 KIPJ 021615Z AUTO 25004KT 10SM CLR 26/16 A3012 RMK AO2 T02600164
 
KDCM - Chester Catawba, South Carolina, USA
Distance from station: SW 44mi, 71km
Updated: Thu, 10/02/2014 12:15pm EDT
Clear
Clear
 Wind from W
Wind: W 5 mph , 7 km/h
Temperature: 82°F , 28°C
Heat Index: 83°F , 28°C
Dew Point: 63°F , 17°C
Humidity: 51%
Barometer: 30.17 inHg , 1021.7 hPa
Clouds: Clear
2014/10/02 16:15 KDCM 021615Z AUTO 26004KT CLR 28/17 A3017 RMK AO2 LTG DSNT W PWINO
KSVH - Statesville, North Carolina, USA
Distance from station: NNW 44mi, 71km
Updated: Thu, 10/02/2014 12:15pm EDT
Clear
Clear
 Wind from calm
Wind: Calm
Temperature: 75°F , 24°C
Dew Point: 64°F , 18°C
Humidity: 69%
Barometer: 30.11 inHg , 1019.6 hPa
Clouds: Clear
Visibility: 10 miles , 16 km
2014/10/02 16:15 KSVH 021615Z AUTO 00000KT 10SM CLR 24/18 A3011 RMK AO2 T02370184
 
KEXX - Davidson Cty Ap, North Carolina, USA
Distance from station: NNE 45mi, 72km
Updated: Thu, 10/02/2014 12:15pm EDT
Clear
Clear
 Wind from calm
Wind: Calm
Temperature: 77°F , 25°C
Dew Point: 64°F , 18°C
Humidity: 65%
Barometer: 30.11 inHg , 1019.6 hPa
Clouds: Clear
Visibility: 10 miles , 16 km
2014/10/02 16:15 KEXX 021615Z AUTO 00000KT 10SM CLR 25/18 A3011 RMK AO2 T02470184
KCQW - Cheraw, South Carolina, USA
Distance from station: SE 49mi, 78km
Updated: Thu, 10/02/2014 12:15pm EDT
Clear
Clear
 Wind from W
Wind: W 6 mph , 9 km/h
Temperature: 81°F , 27°C
Heat Index: 83°F , 28°C
Dew Point: 66°F , 19°C
Humidity: 62%
Barometer: 30.11 inHg , 1019.6 hPa
Clouds: Clear
Visibility: 10 miles , 16 km
2014/10/02 16:15 KCQW 021615Z AUTO 26005KT 10SM CLR 27/19 A3011 RMK AO2